• Join FlightAware (Why Join?)
  • Login
  • US Flag 
02:07PM EDT


 

Airport Tracker/Info


-or-


 

Live Flight TrackerFlight Track Log ✈ AWI3778 ✈ 26-Jun-2013 ✈ KPHL - KBTV

Flight Track Log - Related Links

Times and Time Zones

All times are in EDT time to prevent confusion due to time zone crossing. See the AWI3778 flight status page for this flight to view local times or setup timezone preferences in your user account.

Time Position Orientation Groundspeed Altitude Reporting Facility
EDT Latitude Longitude Course Direction KTS MPH feet Rate Location/Type
11:48AM 39.8667 -75.2833 37° Northeast 149 171 800  Level Philadelphia TRACON
11:49AM 39.8333 -75.3000 201° Southwest 190 219 1,600 2,160 Climbing Philadelphia TRACON
11:50AM 39.7833 -75.3500 218° Southwest 212 244 4,300 2,100 Climbing Philadelphia TRACON
11:51AM 39.7981 -74.7739 105° East  Level FlightAware Approximate
11:51AM 39.7500 -75.3000 131° Southeast 298 343 5,600  Level Philadelphia TRACON
11:52AM 39.8099 -74.6735 37° Northeast  Level FlightAware Approximate
11:52AM 39.7500 -75.1667 90° East 309 356 8,000  Level Philadelphia TRACON
11:53AM 39.8830 -74.6004 37° Northeast  Level FlightAware Approximate
11:53AM 39.7667 -75.0667 78° East 321 369 10,100  Level Philadelphia TRACON
11:54AM 39.9595 -74.5405 37° Northeast  Level FlightAware Approximate
11:55AM 39.7900 -74.7558 84° East 370 426 13,000  Level New York Center
11:56AM 39.8492 -74.6672 49° Northeast 368 423 14,600 1,500 Climbing New York Center
11:57AM 39.9442 -74.5694 38° Northeast 368 423 16,100 1,380 Climbing New York Center
11:58AM 40.0214 -74.4953 36° Northeast 383 441 17,400 1,140 Climbing New York Center
11:59AM 40.1225 -74.3975 36° Northeast 401 461 18,400 900 Climbing New York Center
12:00PM 40.2128 -74.3069 37° Northeast 401 461 19,300 900 Climbing New York Center
12:01PM 40.3031 -74.2164 37° Northeast 401 461 20,300 840 Climbing New York Center
12:02PM 40.3953 -74.1231 38° Northeast 401 461 21,000 720 Climbing New York Center
12:03PM 40.4836 -74.0181 42° Northeast 406 467 21,800 600 Climbing New York Center
12:04PM 40.5767 -73.9678 22° Northeast 406 467 22,300 600 Climbing New York Center
12:05PM 40.7006 -73.9381 10° North 406 467 23,100 780 Climbing New York Center
12:06PM 40.8072 -73.9131 10° North 414 476 23,900 540 Climbing New York Center
12:09PM 41.0828 -73.8444 11° North 410 472 25,000 300 Climbing Boston Center
12:10PM 41.2000 -73.8139 11° North 410 472 25,000  Level Boston Center
12:11PM 41.3108 -73.7858 11° North 410 472 25,000  Level Boston Center
12:12PM 41.4236 -73.7550 12° North 410 472 25,000  Level Boston Center
12:13PM 41.5364 -73.7269 11° North 410 472 25,000  Level Boston Center
12:14PM 41.6494 -73.6958 12° North 410 472 25,000  Level Boston Center
12:15PM 41.7686 -73.6703 North 405 466 25,000  Level Boston Center
12:16PM 41.8833 -73.6392 11° North 411 473 25,000  Level Boston Center
12:17PM 41.9942 -73.6133 10° North 411 473 25,000  Level Boston Center
12:18PM 42.0967 -73.5789 14° North 417 480 25,000  Level Boston Center
12:19PM 42.2075 -73.5500 11° North 410 472 25,000  Level Boston Center
12:20PM 42.3161 -73.5183 12° North 410 472 25,000  Level Boston Center
12:21PM 42.4392 -73.4978 North 404 465 25,000  Level Boston Center
12:22PM 42.5500 -73.4658 12° North 404 465 25,000  Level Boston Center
12:23PM 42.6628 -73.4367 11° North 410 472 25,000  Level Boston Center
12:24PM 42.7797 -73.4075 10° North 410 472 25,000  Level Boston Center
12:25PM 42.8739 -73.3778 13° North 410 472 25,000  Level Boston Center
12:26PM 42.9950 -73.3486 10° North 409 471 25,000 -240 Level Boston Center
12:27PM 43.1097 -73.3303 North 414 476 24,600 -540 Descending Boston Center
12:28PM 43.2264 -73.3178 North 414 476 24,000 -300 Descending Boston Center
12:29PM 43.3392 -73.3050 North 408 470 24,000  Level Boston Center
12:30PM 43.4558 -73.2867 North 389 448 24,000 -960 Level Boston Center
12:31PM 43.5603 -73.2708 North 389 448 22,100 -1,980 Descending Boston Center
12:32PM 43.6625 -73.2608 North 384 442 20,100 -2,340 Descending Boston Center
12:33PM 43.7625 -73.2478 North 365 420 17,500 -2,580 Descending Boston Center
12:34PM 43.8481 -73.2519 358° North 346 398 15,000 -2,520 Descending Boston Center
12:35PM 43.9372 -73.2819 346° North 336 387 12,500 -2,100 Descending Boston Center
12:36PM 44.0183 -73.3147 344° North 315 362 10,900 -1,560 Descending Boston Center
12:37PM 44.0972 -73.3450 345° North 296 341 9,400 -960 Descending Boston Center
12:38PM 44.1764 -73.3606 352° North 283 326 9,000 -420 Descending Boston Center
12:39PM 44.2536 -73.3300 16° North 278 320 8,600 -1,140 Descending Boston Center
12:40PM 44.3289 -73.3194 North 278 320 6,800 -1,800 Descending Boston Center
12:41PM 44.3994 -73.3583 339° North 262 302 5,000 -1,860 Descending Boston Center
12:42PM 44.4719 -73.3972 339° North 257 296 3,100 -1,200 Descending Boston Center
12:43PM 44.5383 -73.4217 345° North 257 296 2,600 -480 Descending Boston Center
12:44PM 44.5806 -73.3639 44° Northeast 200 230 2,200 -420 Descending Boston Center